Time;durP1;ratioP1;P1;durP2;ratioP2;P2;SDS_P1;SDS_P2;PMS_P1;PMS_P2;Temp;Humidity;BMP_temperature;BMP_pressure;BME280_temperature;BME280_humidity;BME280_pressure;Samples;Min_cycle;Max_cycle;Signal;HPM_P1;HPM_P2
2023/12/20 00:00:53;;;;;;;25.67;15.10;;;;;;;4.76;100.00;85152.09;5051182;28;20045;-62
2023/12/20 00:03:19;;;;;;;44.67;17.58;;;;;;;4.72;100.00;85145.84;5052387;28;20021;-62
2023/12/20 00:05:44;;;;;;;23.10;15.90;;;;;;;4.73;100.00;85147.91;5050872;28;20075;-62
2023/12/20 00:08:09;;;;;;;27.13;16.27;;;;;;;4.74;100.00;84805.69;5052268;28;20036;-62
2023/12/20 00:10:35;;;;;;;30.27;16.80;;;;;;;4.73;100.00;84804.31;5050901;28;20048;-63
2023/12/20 00:13:00;;;;;;;36.20;19.38;;;;;;;4.65;100.00;85136.16;5051730;28;20025;-62
2023/12/20 00:15:26;;;;;;;35.42;19.38;;;;;;;4.48;100.00;85114.03;5050708;28;20497;-62
2023/12/20 00:17:51;;;;;;;30.77;17.42;;;;;;;4.60;100.00;85130.66;5052378;28;20358;-62
2023/12/20 00:20:17;;;;;;;32.05;17.70;;;;;;;4.63;100.00;84790.53;5050289;28;20041;-62
2023/12/20 00:22:42;;;;;;;27.58;17.35;;;;;;;4.64;100.00;84791.94;5052164;28;20036;-62
2023/12/20 00:25:07;;;;;;;24.88;17.23;;;;;;;4.65;100.00;84793.31;5050782;28;20041;-62
2023/12/20 00:27:33;;;;;;;29.20;17.08;;;;;;;4.60;100.00;84787.09;5051398;28;20025;-62
2023/12/20 00:29:58;;;;;;;37.60;18.33;;;;;;;4.60;100.00;84787.09;5050808;28;20044;-62
2023/12/20 00:32:23;;;;;;;36.95;19.35;;;;;;;4.59;100.00;85128.56;5051822;28;20028;-62
2023/12/20 00:34:49;;;;;;;26.63;17.00;;;;;;;4.55;100.00;85123.03;5050219;28;20045;-62
2023/12/20 00:37:14;;;;;;;42.47;15.90;;;;;;;4.42;100.00;86136.94;5051813;28;20037;-62
2023/12/20 00:39:39;;;;;;;28.20;16.48;;;;;;;4.42;100.00;86136.94;5050369;28;20041;-62
2023/12/20 00:42:05;;;;;;;31.60;15.82;;;;;;;4.49;100.00;85802.47;5051362;28;20029;-62
2023/12/20 00:44:30;;;;;;;35.10;15.13;;;;;;;4.55;100.00;85466.56;5049288;28;20645;-62
2023/12/20 00:46:56;;;;;;;28.25;13.63;;;;;;;4.59;100.00;85472.13;5051397;28;20020;-63
2023/12/20 00:49:21;;;;;;;34.78;14.50;;;;;;;4.59;100.00;85472.13;5049694;28;20500;-64
2023/12/20 00:51:47;;;;;;;29.23;15.00;;;;;;;4.62;100.00;85132.03;5051815;28;20021;-63
2023/12/20 00:54:13;;;;;;;28.73;11.60;;;;;;;4.55;100.00;85123.03;5050315;28;20535;-63
2023/12/20 00:56:38;;;;;;;26.55;15.27;;;;;;;4.49;100.00;86145.34;5051248;28;20025;-63
2023/12/20 00:59:04;;;;;;;21.33;10.18;;;;;;;4.47;100.00;86486.13;5049897;28;20021;-64
2023/12/20 01:01:29;;;;;;;24.50;11.88;;;;;;;4.39;100.00;87163.47;5051238;28;20021;-63
2023/12/20 01:03:55;;;;;;;21.75;10.23;;;;;;;4.36;100.00;87846.44;5049769;28;20021;-64
2023/12/20 01:06:20;;;;;;;22.40;9.68;;;;;;;4.33;100.00;88185.09;5051386;28;20017;-65
2023/12/20 01:08:46;;;;;;;30.20;13.23;;;;;;;4.28;100.00;88866.72;5050761;28;20491;-59
2023/12/20 01:11:11;;;;;;;22.80;10.45;;;;;;;4.21;100.00;89886.97;5050861;28;20017;-64
2023/12/20 01:13:37;;;;;;;20.88;8.18;;;;;;;4.21;100.00;90574.50;5051153;28;20548;-64
2023/12/20 01:16:02;;;;;;;24.48;11.18;;;;;;;4.15;100.00;91597.88;5049682;28;20044;-63
2023/12/20 01:18:28;;;;;;;34.42;11.27;;;;;;;4.10;100.00;92278.88;5050393;28;20021;-63
2023/12/20 01:20:53;;;;;;;33.28;11.15;;;;;;;4.08;100.00;92963.69;5049755;28;20040;-63
2023/12/20 01:23:19;;;;;;;16.30;8.32;;;;;;;3.98;100.00;93980.31;5050781;28;20420;-63
2023/12/20 01:25:44;;;;;;;21.33;7.10;;;;;;;3.98;100.00;95012.38;5047973;28;20052;-63
2023/12/20 01:28:09;;;;;;;18.52;8.60;;;;;;;3.97;100.00;95699.75;5051151;28;20117;-63
2023/12/20 01:30:35;;;;;;;24.95;7.95;;;;;;;3.96;100.00;96386.44;5049326;28;20037;-63
2023/12/20 01:33:01;;;;;;;35.30;10.30;;;;;;;3.90;100.00;97408.75;5050856;28;20067;-63
2023/12/20 01:35:26;;;;;;;24.23;7.43;;;;;;;3.84;100.00;98431.84;5049134;28;20040;-63
2023/12/20 01:37:52;;;;;;;20.10;6.20;;;;;;;3.75;100.00;98763.25;5050621;28;20495;-62
2023/12/20 01:40:17;;;;;;;24.38;8.02;;;;;;;3.73;100.00;99448.53;5048798;28;20041;-63
2023/12/20 01:42:43;;;;;;;18.52;7.60;;;;;;;3.79;100.00;99458.28;5050957;28;20104;-63
2023/12/20 01:45:09;;;;;;;23.52;8.38;;;;;;;3.76;100.00;100141.28;5049235;28;20080;-63
2023/12/20 01:47:36;;;;;;;21.38;6.55;;;;;;;3.76;100.00;100486.47;5049878;28;20021;-63
2023/12/20 01:50:03;;;;;;;16.85;6.55;;;;;;;3.68;100.00;100816.88;5049113;28;20519;-63
2023/12/20 01:52:29;;;;;;;19.90;7.15;;;;;;;3.70;100.00;101165.41;5050556;28;20029;-63
2023/12/20 01:55:00;;;;;;;13.82;5.55;;;;;;;3.68;100.00;101506.56;5048772;28;20036;-63
2023/12/20 01:57:27;;;;;;;22.42;6.75;;;;;;;3.65;100.00;101846.00;5050150;28;20017;-64
2023/12/20 01:59:52;;;;;;;20.33;7.53;;;;;;;3.60;100.00;102526.59;5049112;28;20562;-64
2023/12/20 02:02:18;;;;;;;29.60;8.63;;;;;;;3.57;100.00;102866.88;5049822;28;20017;-64
2023/12/20 02:04:44;;;;;;;28.00;7.57;;;;;;;3.59;100.00;103213.94;5049215;28;20045;-64
2023/12/20 02:07:11;;;;;;;21.27;6.25;;;;;;;3.58;100.00;103556.78;5049952;28;20095;-64
2023/12/20 02:09:37;;;;;;;16.08;6.47;;;;;;;3.63;100.00;103220.69;5048523;28;20051;-64
2023/12/20 02:12:03;;;;;;;39.88;11.80;;;;;;;3.71;100.00;102545.06;5050219;28;20621;-64
2023/12/20 02:14:29;;;;;;;22.65;5.93;;;;;;;3.80;100.00;101526.50;5048696;28;20037;-64
2023/12/20 02:16:54;;;;;;;16.98;6.85;;;;;;;3.90;100.00;100507.88;5050331;28;20025;-64
2023/12/20 02:19:20;;;;;;;18.35;5.82;;;;;;;3.87;100.00;100159.31;5048015;28;20037;-64
2023/12/20 02:21:45;;;;;;;18.73;6.75;;;;;;;3.91;100.00;99820.63;5050235;28;20032;-64
2023/12/20 02:24:10;;;;;;;22.88;6.03;;;;;;;3.88;100.00;99816.50;5049016;28;20037;-63
2023/12/20 02:26:36;;;;;;;27.38;6.78;;;;;;;3.85;100.00;99810.81;5049449;28;20020;-63
2023/12/20 02:29:02;;;;;;;28.63;10.00;;;;;;;3.94;100.00;99481.91;5048201;28;20460;-63
2023/12/20 02:31:27;;;;;;;21.40;5.53;;;;;;;3.96;100.00;99139.94;5049813;28;20032;-64
2023/12/20 02:33:52;;;;;;;24.02;8.95;;;;;;;3.91;100.00;99477.00;5048796;28;20021;-64
2023/12/20 02:36:18;;;;;;;22.10;6.80;;;;;;;3.90;100.00;100163.41;5049322;28;20045;-64
2023/12/20 02:38:43;;;;;;;37.92;9.13;;;;;;;3.89;100.00;100506.25;5050411;28;20029;-64
2023/12/20 02:41:09;;;;;;;21.15;5.65;;;;;;;3.84;100.00;100842.44;5048227;28;20040;-63
2023/12/20 02:43:34;;;;;;;14.55;6.95;;;;;;;3.89;100.00;101540.63;5050033;28;20021;-63
2023/12/20 02:45:59;;;;;;;15.45;6.00;;;;;;;3.91;100.00;101888.53;5048703;28;20447;-63
2023/12/20 02:48:25;;;;;;;17.45;7.32;;;;;;;3.89;100.00;102573.63;5049031;28;20051;-63
2023/12/20 02:50:51;;;;;;;23.98;6.80;;;;;;;3.90;100.00;102919.97;5047253;28;20090;-63
2023/12/20 02:53:16;;;;;;;31.10;6.13;;;;;;;3.91;100.00;103266.38;5049955;28;20029;-62
2023/12/20 02:55:41;;;;;;;20.23;5.57;;;;;;;3.92;100.00;103612.78;5047826;28;20611;-63
2023/12/20 02:58:07;;;;;;;29.83;7.70;;;;;;;3.92;100.00;103613.63;5049685;28;20024;-63
2023/12/20 03:00:32;;;;;;;35.80;6.82;;;;;;;3.95;100.00;103617.88;5048386;28;20417;-63
2023/12/20 03:02:59;;;;;;;30.90;8.68;;;;;;;4.05;100.00;103290.03;5049521;28;20478;-63
2023/12/20 03:05:24;;;;;;;24.60;7.10;;;;;;;4.08;100.00;103295.09;5048132;28;20594;-63
2023/12/20 03:07:50;;;;;;;22.75;7.50;;;;;;;4.08;100.00;103639.09;5052184;28;20047;-63
2023/12/20 03:10:15;;;;;;;19.50;5.45;;;;;;;4.09;100.00;103985.66;5051740;28;20033;-63
2023/12/20 03:12:40;;;;;;;25.13;6.55;;;;;;;4.09;100.00;104331.41;5053398;28;20024;-63
2023/12/20 03:15:06;;;;;;;25.58;7.30;;;;;;;4.09;100.00;104675.50;5052142;28;20067;-63
2023/12/20 03:17:32;;;;;;;12.52;5.43;;;;;;;4.10;100.00;105022.13;5053003;28;20029;-63
2023/12/20 03:19:57;;;;;;;26.35;6.80;;;;;;;4.13;100.00;105028.16;5051962;28;20044;-62
2023/12/20 03:22:22;;;;;;;19.23;7.25;;;;;;;4.15;100.00;105374.91;5053387;28;20017;-63
2023/12/20 03:24:48;;;;;;;24.42;7.35;;;;;;;4.18;100.00;105726.00;5051593;28;20044;-63
2023/12/20 03:27:13;;;;;;;20.35;5.70;;;;;;;4.20;100.00;106074.59;5053083;28;20079;-63
2023/12/20 03:29:38;;;;;;;37.97;8.85;;;;;;;4.24;100.00;106081.56;5051591;28;20048;-63
2023/12/20 03:32:04;;;;;;;12.40;6.38;;;;;;;4.29;100.00;106089.34;5052755;28;20094;-63
2023/12/20 03:34:29;;;;;;;31.23;10.43;;;;;;;4.35;100.00;106099.81;5051727;28;20504;-63
2023/12/20 03:36:55;;;;;;;24.52;6.75;;;;;;;4.37;100.00;106448.50;5053030;28;20041;-63
2023/12/20 03:39:20;;;;;;;32.78;10.68;;;;;;;4.34;100.00;107479.13;5051060;28;20045;-64
2023/12/20 03:41:45;;;;;;;23.20;6.47;;;;;;;4.33;100.00;108512.50;5053150;28;20028;-63
2023/12/20 03:44:11;;;;;;;25.90;7.28;;;;;;;4.27;100.00;110229.94;5051587;28;20103;-63
2023/12/20 03:46:36;;;;;;;27.58;6.47;;;;;;;4.24;100.00;111952.31;5052244;28;20343;-63
2023/12/20 03:49:01;;;;;;;36.03;7.72;;;;;;;4.14;100.00;114008.91;5051479;28;20529;-63
2023/12/20 03:51:27;;;;;;;28.95;6.55;;;;;;;4.17;100.00;115743.75;5052639;28;20032;-62
2023/12/20 03:53:52;;;;;;;33.20;8.45;;;;;;;4.15;100.00;117469.91;5051049;28;20017;-62
2023/12/20 03:56:18;;;;;;;28.20;7.40;;;;;;;4.13;100.00;118850.44;5052533;28;20095;-62
2023/12/20 03:58:43;;;;;;;24.77;6.93;;;;;;;4.17;100.00;119895.97;5052674;28;20436;-62
2023/12/20 04:01:12;;;;;;;15.57;6.30;;;;;;;4.20;100.00;120940.91;5050950;28;20060;-62
2023/12/20 04:03:38;;;;;;;27.15;8.15;;;;;;;4.20;100.00;121980.19;5052400;28;20033;-62
2023/12/20 04:06:04;;;;;;;19.23;6.82;;;;;;;4.23;100.00;122679.22;5050910;28;20136;-63
2023/12/20 04:08:29;;;;;;;26.48;6.80;;;;;;;4.26;100.00;122685.28;5051702;28;20408;-63
2023/12/20 04:10:54;;;;;;;23.05;7.50;;;;;;;4.35;100.00;122355.88;5051133;28;20071;-63
2023/12/20 04:13:20;;;;;;;25.73;9.98;;;;;;;4.45;100.00;122029.41;5052275;28;20480;-64
2023/12/20 04:15:45;;;;;;;32.30;9.10;;;;;;;4.51;100.00;121693.81;5050683;28;20048;-63
2023/12/20 04:18:11;;;;;;;30.10;7.03;;;;;;;4.56;100.00;121703.84;5051001;28;20024;-63
2023/12/20 04:20:36;;;;;;;24.65;9.15;;;;;;;4.56;100.00;122051.50;5050542;28;20059;-63
2023/12/20 04:23:01;;;;;;;29.45;6.82;;;;;;;4.57;100.00;122745.94;5051612;28;20024;-63
2023/12/20 04:25:27;;;;;;;16.65;5.28;;;;;;;4.57;100.00;123786.28;5050594;28;20048;-63
2023/12/20 04:27:52;;;;;;;22.73;8.80;;;;;;;4.64;100.00;124146.41;5051773;28;20078;-64
2023/12/20 04:30:17;;;;;;;47.92;11.65;;;;;;;4.63;100.00;125186.19;5049831;28;20518;-63
2023/12/20 04:32:43;;;;;;;24.10;5.47;;;;;;;4.60;100.00;126221.00;5052308;28;20036;-62
2023/12/20 04:35:08;;;;;;;21.20;8.15;;;;;;;4.62;100.00;127266.47;5049410;28;20041;-62
2023/12/20 04:37:34;;;;;;;19.27;7.57;;;;;;;4.58;100.00;128300.66;5049943;28;20049;-63
2023/12/20 04:39:59;;;;;;;29.60;7.32;;;;;;;4.54;100.00;129681.16;5050327;28;20041;-63
2023/12/20 04:42:24;;;;;;;17.45;8.00;;;;;;;4.55;100.00;130376.94;5051877;28;20074;-63
2023/12/20 04:44:50;;;;;;;35.10;10.73;;;;;;;4.50;100.00;131408.34;5050346;28;20036;-63
2023/12/20 04:47:15;;;;;;;34.78;9.25;;;;;;;4.52;100.00;131761.22;5051521;28;20032;-62
2023/12/20 04:49:41;;;;;;;18.63;7.78;;;;;;;4.51;100.00;132452.94;5048878;28;20048;-63
2023/12/20 04:52:06;;;;;;;35.08;7.18;;;;;;;4.54;100.00;132111.97;5051633;28;20025;-63
2023/12/20 04:54:31;;;;;;;21.27;7.22;;;;;;;4.44;100.00;132439.81;5049425;28;20404;-63
2023/12/20 04:56:57;;;;;;;30.40;8.50;;;;;;;4.48;100.00;133489.03;5051484;28;20032;-63
2023/12/20 04:59:22;;;;;;;39.20;9.25;;;;;;;4.42;100.00;134173.22;5050091;28;20530;-63
2023/12/20 05:01:48;;;;;;;48.25;10.60;;;;;;;4.39;100.00;134861.81;5051164;28;20523;-63
2023/12/20 05:04:13;;;;;;;30.15;8.57;;;;;;;4.49;100.00;133838.88;5050227;28;20032;-61
2023/12/20 05:06:38;;;;;;;23.52;8.57;;;;;;;4.54;100.00;133154.66;5050674;28;20032;-63
2023/12/20 05:09:04;;;;;;;24.90;9.25;;;;;;;4.57;100.00;131772.09;5049715;28;20029;-63
2023/12/20 05:11:29;;;;;;;21.88;8.73;;;;;;;4.58;100.00;131426.78;5051412;28;20021;-64
2023/12/20 05:13:55;;;;;;;25.17;8.38;;;;;;;4.55;100.00;130725.41;5048354;28;20471;-64
2023/12/20 05:16:21;;;;;;;61.03;12.63;;;;;;;4.60;100.00;130735.09;5050398;28;20082;-62
2023/12/20 05:18:49;;;;;;;29.65;10.57;;;;;;;4.68;100.00;129710.06;5050712;28;20020;-61
2023/12/20 05:21:14;;;;;;;31.17;7.22;;;;;;;4.71;100.00;129368.03;5049862;28;20040;-63
2023/12/20 05:23:40;;;;;;;27.48;10.50;;;;;;;4.71;100.00;129716.50;5050182;28;20025;-61
2023/12/20 05:26:06;;;;;;;18.70;6.75;;;;;;;4.81;100.00;129388.28;5049524;28;20044;-62
2023/12/20 05:28:31;;;;;;;33.22;6.53;;;;;;;4.85;100.00;129744.31;5050511;28;20037;-61
2023/12/20 05:30:57;;;;;;;21.88;12.48;;;;;;;4.84;100.00;131479.94;5048786;28;20491;-61
2023/12/20 05:33:22;;;;;;;28.25;6.88;;;;;;;4.85;100.00;132525.13;5050474;28;20028;-61
2023/12/20 05:35:47;;;;;;;34.67;8.02;;;;;;;4.86;100.00;133918.47;5049413;28;20047;-62
2023/12/20 05:38:13;;;;;;;23.77;5.65;;;;;;;4.90;100.00;134623.06;5050319;28;20045;-61
2023/12/20 05:40:38;;;;;;;30.50;7.65;;;;;;;4.88;100.00;136359.69;5048905;28;20051;-62
2023/12/20 05:43:04;;;;;;;45.55;7.20;;;;;;;4.90;100.00;138103.78;5049482;28;20029;-62
2023/12/20 05:45:29;;;;;;;27.75;7.70;;;;;;;4.90;100.00;139496.91;5048558;28;20610;-61
2023/12/20 05:47:54;;;;;;;28.45;8.60;;;;;;;4.90;100.00;140890.47;5050698;28;20033;-62
2023/12/20 05:50:21;;;;;;;27.10;9.00;;;;;;;4.92;100.00;142289.25;5049090;28;20116;-62
2023/12/20 05:52:46;;;;;;;34.10;9.75;;;;;;;4.91;100.00;143332.75;5050637;28;20415;-61
2023/12/20 05:55:11;;;;;;;29.83;11.00;;;;;;;4.95;100.00;144387.25;5048947;28;20056;-62
2023/12/20 05:57:37;;;;;;;23.77;8.48;;;;;;;4.97;100.00;145438.53;5050441;28;20021;-61
2023/12/20 06:00:03;;;;;;;29.77;8.10;;;;;;;4.97;100.00;146137.53;5048810;28;20032;-61
2023/12/20 06:02:28;;;;;;;20.73;9.98;;;;;;;4.97;100.00;148231.66;5050051;28;20602;-61
2023/12/20 06:04:54;;;;;;;25.88;6.60;;;;;;;5.00;100.00;149635.81;5049049;28;20047;-61
2023/12/20 06:07:20;;;;;;;20.23;7.00;;;;;;;5.01;100.00;151035.53;5049978;28;20037;-62
2023/12/20 06:09:45;;;;;;;44.50;8.45;;;;;;;5.05;100.00;151744.38;5048912;28;20041;-61
2023/12/20 06:12:11;;;;;;;34.47;8.68;;;;;;;5.00;100.00;153129.75;5050380;28;20017;-61
2023/12/20 06:14:36;;;;;;;28.25;7.30;;;;;;;5.03;100.00;154885.50;5048505;28;20067;-61
2023/12/20 06:17:02;;;;;;;23.17;8.32;;;;;;;5.04;100.00;157768.75;5050503;28;20021;-61
2023/12/20 06:19:27;;;;;;;32.20;7.43;;;;;;;5.12;100.00;158979.41;5048825;28;20040;-60
2023/12/20 06:21:53;;;;;;;21.95;8.77;;;;;;;5.10;100.00;161108.03;5050383;28;20098;-60
2023/12/20 06:24:18;;;;;;;31.40;8.60;;;;;;;5.15;100.00;161912.38;5048728;28;20037;-60
2023/12/20 06:26:44;;;;;;;17.55;5.90;;;;;;;5.18;100.00;161920.41;5050076;28;20079;-61
2023/12/20 06:29:09;;;;;;;37.08;7.53;;;;;;;5.17;100.00;161917.78;5048247;28;20130;-61
2023/12/20 06:31:34;;;;;;;24.77;7.63;;;;;;;5.18;100.00;161920.41;5049755;28;20421;-61
2023/12/20 06:34:00;;;;;;;33.90;9.38;;;;;;;5.08;100.00;161896.25;5048915;28;20025;-61
2023/12/20 06:36:28;;;;;;;25.63;7.70;;;;;;;5.26;100.00;161941.94;5049164;28;20049;-61
2023/12/20 06:38:54;;;;;;;22.67;6.97;;;;;;;5.24;100.00;161937.91;5048596;28;20373;-61
2023/12/20 06:41:19;;;;;;;20.33;6.72;;;;;;;5.25;100.00;161939.25;5049818;28;20032;-61
2023/12/20 06:43:45;;;;;;;20.02;8.68;;;;;;;5.24;100.00;161936.59;5052304;28;20029;-60
2023/12/20 06:46:10;;;;;;;28.15;12.23;;;;;;;5.27;100.00;161944.66;5054061;28;20024;-59
2023/12/20 06:48:35;;;;;;;26.20;7.20;;;;;;;5.23;100.00;161933.91;5053514;28;20039;-60
2023/12/20 06:51:04;;;;;;;35.42;9.73;;;;;;;5.17;100.00;161917.78;5052081;28;20041;-59
2023/12/20 06:53:29;;;;;;;34.33;7.70;;;;;;;5.23;100.00;161935.22;5053965;28;20426;-62
2023/12/20 06:55:56;;;;;;;33.30;8.88;;;;;;;5.23;100.00;161933.91;5052486;28;20052;-59
2023/12/20 06:58:22;;;;;;;24.38;8.57;;;;;;;5.28;100.00;161947.34;5053207;28;20060;-59
2023/12/20 07:00:48;;;;;;;27.75;7.45;;;;;;;5.27;100.00;161944.66;5052340;28;20040;-59
2023/12/20 07:03:13;;;;;;;25.52;10.80;;;;;;;5.31;100.00;161955.44;5053778;28;20036;-59
2023/12/20 07:05:38;;;;;;;24.33;7.63;;;;;;;5.31;100.00;161955.44;5051604;28;20442;-59
2023/12/20 07:08:04;;;;;;;57.38;9.57;;;;;;;5.35;100.00;161966.16;5053569;28;20036;-59
2023/12/20 07:10:30;;;;;;;17.77;5.75;;;;;;;5.34;100.00;161962.16;5052063;28;20507;-59
2023/12/20 07:12:55;;;;;;;39.75;9.18;;;;;;;5.35;100.00;161966.16;5053872;28;20021;-59
2023/12/20 07:15:22;;;;;;;22.30;8.30;;;;;;;5.34;100.00;161963.47;5051615;28;20092;-59
2023/12/20 07:17:47;;;;;;;24.95;6.88;;;;;;;5.34;100.00;161963.47;5053438;28;20100;-59
2023/12/20 07:20:12;;;;;;;16.38;8.40;;;;;;;5.36;100.00;161968.88;5051972;28;20408;-59
2023/12/20 07:22:38;;;;;;;27.08;7.43;;;;;;;5.38;100.00;161974.25;5053116;28;20040;-59
2023/12/20 07:25:04;;;;;;;17.73;6.18;;;;;;;5.43;100.00;161985.00;5052121;28;20045;-59
2023/12/20 07:27:30;;;;;;;32.67;8.20;;;;;;;5.46;100.00;161993.09;5053021;28;20103;-59
2023/12/20 07:29:55;;;;;;;19.20;7.13;;;;;;;5.44;100.00;161987.69;5032843;28;20045;-59
2023/12/20 07:32:20;;;;;;;48.55;10.25;;;;;;;5.51;100.00;162007.84;5029280;28;20021;-59
2023/12/20 07:34:46;;;;;;;24.67;6.72;;;;;;;5.52;100.00;162009.22;5034231;28;20103;-59
2023/12/20 07:37:11;;;;;;;21.73;8.63;;;;;;;5.52;100.00;162010.56;5052709;28;20037;-60
2023/12/20 07:39:40;;;;;;;25.55;12.60;;;;;;;5.50;100.00;162003.81;5051982;28;20052;-59
2023/12/20 07:42:07;;;;;;;27.77;7.82;;;;;;;5.55;100.00;162017.28;5053283;28;20029;-59
2023/12/20 07:44:32;;;;;;;25.58;8.70;;;;;;;5.61;100.00;162032.09;5051054;28;20060;-59
2023/12/20 07:46:58;;;;;;;15.70;8.05;;;;;;;5.62;100.00;162034.78;5053282;28;20361;-59
2023/12/20 07:49:23;;;;;;;26.30;7.03;;;;;;;5.60;100.00;162030.75;5051677;28;20075;-59
2023/12/20 07:51:49;;;;;;;30.38;9.40;;;;;;;5.65;100.00;162044.19;5033680;28;20389;-59
2023/12/20 07:54:15;;;;;;;28.13;6.28;;;;;;;5.70;100.00;162057.63;5031972;28;20199;-59
2023/12/20 07:56:40;;;;;;;22.55;6.95;;;;;;;5.72;100.00;162063.03;5033151;28;20635;-59
2023/12/20 07:59:05;;;;;;;15.93;7.68;;;;;;;5.70;100.00;162056.31;5031395;28;20488;-59
2023/12/20 08:01:31;;;;;;;27.20;8.43;;;;;;;5.74;100.00;162065.72;5032973;28;20028;-59
2023/12/20 08:03:57;;;;;;;21.60;6.63;;;;;;;5.75;100.00;162069.75;5031960;28;20034;-59
2023/12/20 08:06:22;;;;;;;24.05;8.38;;;;;;;5.75;100.00;162068.44;5031763;28;20411;-59
2023/12/20 08:08:48;;;;;;;30.48;8.18;;;;;;;5.76;100.00;162071.13;5030663;28;20377;-59
2023/12/20 08:11:13;;;;;;;21.15;7.05;;;;;;;5.79;100.00;162080.53;5033252;28;20038;-59
2023/12/20 08:13:38;;;;;;;19.98;6.13;;;;;;;5.82;100.00;162088.59;5031752;28;20393;-59
2023/12/20 08:16:04;;;;;;;19.05;8.63;;;;;;;5.85;100.00;162096.69;5030310;28;20056;-59
2023/12/20 08:18:29;;;;;;;21.73;6.18;;;;;;;5.85;100.00;162095.31;5031171;28;20024;-59
2023/12/20 08:20:55;;;;;;;30.00;9.68;;;;;;;5.86;100.00;162098.00;5030337;28;20044;-59
2023/12/20 08:23:21;;;;;;;17.88;6.85;;;;;;;5.85;100.00;162095.31;5031759;28;20041;-59
2023/12/20 08:25:46;;;;;;;23.23;5.45;;;;;;;5.88;100.00;162103.41;5030541;28;20492;-59
2023/12/20 08:28:12;;;;;;;25.60;10.02;;;;;;;5.89;100.00;162106.09;5031922;28;20029;-59
2023/12/20 08:30:37;;;;;;;31.17;10.05;;;;;;;5.91;100.00;162111.50;5029565;28;20041;-59
2023/12/20 08:33:02;;;;;;;15.02;5.63;;;;;;;5.92;100.00;162114.16;5032702;28;20032;-59
2023/12/20 08:35:28;;;;;;;37.40;9.55;;;;;;;5.93;100.00;162115.53;5029414;28;20479;-59
2023/12/20 08:37:53;;;;;;;29.40;9.00;;;;;;;5.96;100.00;162124.94;5032693;28;20037;-59
2023/12/20 08:40:18;;;;;;;22.10;8.23;;;;;;;5.96;100.00;162124.94;5030956;28;20461;-59
2023/12/20 08:42:44;;;;;;;30.42;7.68;;;;;;;6.01;100.00;162138.44;5032446;28;20029;-59
2023/12/20 08:45:10;;;;;;;27.55;9.90;;;;;;;5.98;100.00;162130.34;5030883;28;20440;-59
2023/12/20 08:47:35;;;;;;;24.85;7.82;;;;;;;6.00;100.00;162135.72;5032124;28;20040;-59
2023/12/20 08:50:01;;;;;;;22.52;7.72;;;;;;;6.05;100.00;162147.84;5030642;28;20060;-59
2023/12/20 08:52:27;;;;;;;25.63;7.13;;;;;;;6.07;100.00;162151.94;5032103;28;20029;-59
2023/12/20 08:54:53;;;;;;;23.00;7.97;;;;;;;6.05;100.00;162146.53;5030847;28;20544;-59
2023/12/20 08:57:23;;;;;;;20.40;7.15;;;;;;;6.12;100.00;162165.38;5031217;28;20056;-59
2023/12/20 08:59:49;;;;;;;18.58;7.28;;;;;;;6.18;100.00;162181.50;5030701;28;20040;-59
2023/12/20 09:02:15;;;;;;;24.13;8.05;;;;;;;6.16;100.00;162177.50;5032179;28;20025;-59
2023/12/20 09:04:40;;;;;;;21.88;8.05;;;;;;;6.17;100.00;162178.81;5029526;28;20041;-60
2023/12/20 09:07:07;;;;;;;33.40;8.85;;;;;;;6.13;100.00;162169.38;5032154;28;20025;-59
2023/12/20 09:09:33;;;;;;;34.20;10.77;;;;;;;6.10;100.00;162159.97;5030390;28;20196;-59
2023/12/20 09:11:59;;;;;;;23.55;7.53;;;;;;;6.07;100.00;162151.94;5031565;28;20504;-59
2023/12/20 09:14:24;;;;;;;27.50;7.10;;;;;;;6.08;100.00;162154.56;5030219;28;20077;-59
2023/12/20 09:16:51;;;;;;;28.85;7.03;;;;;;;6.08;100.00;162154.56;5031904;28;20040;-59
2023/12/20 09:19:17;;;;;;;19.10;7.40;;;;;;;6.00;100.00;162135.72;5030207;28;20095;-59
2023/12/20 09:21:42;;;;;;;32.40;10.77;;;;;;;5.97;100.00;162127.63;5031941;28;20028;-59
2023/12/20 09:24:08;;;;;;;19.05;6.07;;;;;;;5.94;100.00;162119.53;5030670;28;20037;-59
2023/12/20 09:26:34;;;;;;;36.17;9.50;;;;;;;5.91;100.00;162111.50;5030952;28;20087;-59
2023/12/20 09:28:59;;;;;;;22.10;8.07;;;;;;;5.85;100.00;162096.69;5029781;28;20034;-59
2023/12/20 09:31:25;;;;;;;18.55;8.40;;;;;;;5.84;100.00;162092.66;5031239;28;20025;-59
2023/12/20 09:33:50;;;;;;;26.38;9.23;;;;;;;5.83;100.00;162089.97;5029957;28;20029;-59
2023/12/20 09:36:15;;;;;;;26.38;7.07;;;;;;;5.77;100.00;162075.16;5031435;28;20456;-59
2023/12/20 09:38:42;;;;;;;32.15;10.80;;;;;;;5.80;100.00;162081.88;5031347;28;20025;-59
2023/12/20 09:41:07;;;;;;;34.75;9.40;;;;;;;5.80;100.00;162081.88;5038326;28;20041;-60
2023/12/20 09:43:37;;;;;;;22.67;6.25;;;;;;;5.86;100.00;162098.00;5050524;28;20093;-59
2023/12/20 09:46:05;;;;;;;18.85;6.72;;;;;;;5.77;100.00;162075.16;5049572;28;20488;-60
2023/12/20 09:48:32;;;;;;;34.90;7.97;;;;;;;5.82;100.00;162088.59;5049618;28;20487;-60
2023/12/20 09:50:58;;;;;;;19.15;5.90;;;;;;;5.79;100.00;162080.53;5049692;28;20400;-60
2023/12/20 09:53:29;;;;;;;22.85;7.95;;;;;;;5.81;100.00;162084.56;5050807;28;20029;-60
2023/12/20 09:56:00;;;;;;;32.20;11.68;;;;;;;5.84;100.00;162093.97;5048732;28;20045;-59
2023/12/20 09:58:25;;;;;;;26.60;6.65;;;;;;;5.86;100.00;162098.00;5050697;28;20357;-59
2023/12/20 10:00:51;;;;;;;29.77;5.75;;;;;;;5.88;100.00;162103.41;5049700;28;20051;-59
2023/12/20 10:03:21;;;;;;;27.02;8.15;;;;;;;5.94;100.00;162119.53;5050992;28;20024;-59
2023/12/20 10:05:50;;;;;;;26.48;7.95;;;;;;;5.96;100.00;162124.94;5049651;28;20040;-59
2023/12/20 10:08:15;;;;;;;20.05;7.97;;;;;;;6.00;100.00;162134.41;5050416;28;20091;-59
2023/12/20 10:10:40;;;;;;;31.40;8.73;;;;;;;6.02;100.00;162139.81;5048214;28;20575;-59
2023/12/20 10:13:08;;;;;;;18.02;7.07;;;;;;;6.01;100.00;162138.44;5051000;28;20044;-59
2023/12/20 10:15:35;;;;;;;33.77;11.50;;;;;;;5.90;100.00;162108.81;5049384;28;20106;-59
2023/12/20 10:18:01;;;;;;;23.27;8.23;;;;;;;5.99;100.00;162133.09;5050624;28;20020;-59
2023/12/20 10:20:28;;;;;;;25.45;8.43;;;;;;;6.05;100.00;162146.53;5049000;28;20588;-59
2023/12/20 10:22:54;;;;;;;20.73;10.52;;;;;;;6.03;100.00;162143.84;5051159;28;20536;-59
2023/12/20 10:25:21;;;;;;;25.35;9.95;;;;;;;6.02;100.00;162141.13;5048859;28;20045;-59
2023/12/20 10:27:46;;;;;;;26.40;9.52;;;;;;;5.99;100.00;162133.09;5050600;28;20384;-59
2023/12/20 10:30:13;;;;;;;22.83;6.78;;;;;;;6.00;100.00;162134.41;5049402;28;20037;-59
2023/12/20 10:32:38;;;;;;;21.27;7.40;;;;;;;6.08;100.00;162154.56;5049218;28;20395;-59
2023/12/20 10:35:04;;;;;;;18.83;6.63;;;;;;;6.12;100.00;161537.59;5049054;28;20048;-59
2023/12/20 10:37:29;;;;;;;26.10;8.32;;;;;;;6.13;100.00;160986.59;5050366;28;20047;-59
2023/12/20 10:39:57;;;;;;;39.15;11.23;;;;;;;6.15;100.00;160379.31;5049217;28;20515;-59
2023/12/20 10:42:26;;;;;;;29.98;9.05;;;;;;;6.08;100.00;160881.38;5050408;28;20029;-59
2023/12/20 10:44:53;;;;;;;;;;;;;;;6.16;100.00;160687.59;5049836;28;20037;-59
2023/12/20 10:47:19;;;;;;;29.52;9.63;;;;;;;6.10;100.00;162159.97;5050186;28;19952;-59
2023/12/20 10:49:46;;;;;;;18.65;7.20;;;;;;;6.22;100.00;161602.75;5048893;28;20114;-59
2023/12/20 10:52:11;;;;;;;30.13;9.80;;;;;;;6.37;100.00;160488.72;5050482;28;20033;-59
2023/12/20 10:54:37;;;;;;;25.15;9.35;;;;;;;6.47;100.00;160241.13;5049068;28;20524;-59
2023/12/20 10:57:05;;;;;;;25.42;7.68;;;;;;;6.37;100.00;161942.00;5050232;28;20104;-59
2023/12/20 10:59:33;;;;;;;24.73;7.45;;;;;;;6.45;100.00;162248.75;5048986;28;20061;-59
2023/12/20 11:01:59;;;;;;;43.28;12.90;;;;;;;6.53;100.00;162273.03;5050405;28;20025;-59
2023/12/20 11:04:31;;;;;;;18.60;7.53;;;;;;;6.60;100.00;162291.88;5048773;28;20040;-59
2023/12/20 11:07:03;;;;;;;19.67;6.28;;;;;;;6.64;100.00;162302.69;5037066;28;20025;-60
2023/12/20 11:09:35;;;;;;;15.20;6.55;;;;;;;6.71;100.00;162318.81;5037038;28;20064;-59